METAR Data
IDs: Format: Raw Decoded Include TAF

Data at: 1922 UTC 18 Jul 2019

KOUN 181845Z 18017G23KT 10SM CLR 35/21 A2989